Time;durP1;ratioP1;P1;durP2;ratioP2;P2;SDS_P1;SDS_P2;PMS_P1;PMS_P2;Temp;Humidity;BMP_temperature;BMP_pressure;BME280_temperature;BME280_humidity;BME280_pressure;Samples;Min_cycle;Max_cycle;Signal;HPM_P1;HPM_P2
2022/06/11 00:01:00;;;;;;;22.45;7.05;;;;;;;17.38;100.00;101769.19;5069419;28;20483;-76
2022/06/11 00:03:26;;;;;;;15.52;6.70;;;;;;;17.27;100.00;101770.16;5090318;28;20043;-76
2022/06/11 00:05:52;;;;;;;20.35;7.07;;;;;;;17.23;100.00;101767.81;5063221;28;20479;-75
2022/06/11 00:08:19;;;;;;;20.55;6.45;;;;;;;17.20;100.00;101777.31;5090856;28;20035;-76
2022/06/11 00:10:45;;;;;;;20.80;6.72;;;;;;;17.16;100.00;101767.53;5086264;28;20032;-76
2022/06/11 00:13:10;;;;;;;21.45;6.57;;;;;;;17.08;100.00;101772.88;5090691;28;20056;-76
2022/06/11 00:15:36;;;;;;;21.02;7.40;;;;;;;16.99;100.00;101766.31;5064552;28;20060;-76
2022/06/11 00:18:02;;;;;;;16.25;6.97;;;;;;;16.96;100.00;101768.50;5081266;28;20038;-75
2022/06/11 00:20:28;;;;;;;18.92;7.50;;;;;;;16.94;100.00;101776.03;5065469;28;20481;-76
2022/06/11 00:22:55;;;;;;;21.17;6.93;;;;;;;16.91;100.00;101768.91;5083183;28;20032;-76
2022/06/11 00:25:21;;;;;;;25.02;7.65;;;;;;;16.94;100.00;101773.28;5062091;28;20497;-76
2022/06/11 00:27:47;;;;;;;26.15;7.97;;;;;;;16.90;100.00;101768.06;5087891;28;20036;-76
2022/06/11 00:30:13;;;;;;;15.75;7.32;;;;;;;16.89;100.00;101768.19;5090334;28;20048;-76
2022/06/11 00:32:39;;;;;;;19.75;7.57;;;;;;;16.88;100.00;101769.19;5085083;28;20459;-76
2022/06/11 00:35:06;;;;;;;22.20;7.70;;;;;;;16.84;100.00;101770.44;5072439;28;20068;-76
2022/06/11 00:37:33;;;;;;;17.13;7.55;;;;;;;16.74;100.00;101767.63;5074741;28;20086;-76
2022/06/11 00:39:59;;;;;;;16.02;7.07;;;;;;;16.76;100.00;101770.25;5079740;28;20039;-76
2022/06/11 00:42:31;;;;;;;18.52;7.35;;;;;;;16.75;100.00;101777.69;5091653;28;20035;-76
2022/06/11 00:45:18;;;;;;;20.25;8.38;;;;;;;16.71;100.00;101779.00;5071156;28;20492;-76
2022/06/11 00:47:55;;;;;;;20.88;7.63;;;;;;;16.64;100.00;101777.78;5065205;28;20058;-76
2022/06/11 00:50:37;;;;;;;18.13;7.15;;;;;;;16.65;100.00;101777.66;5075335;28;20095;-76
2022/06/11 00:53:11;;;;;;;21.70;8.05;;;;;;;16.53;100.00;101771.34;5075094;28;20046;-77
2022/06/11 00:55:39;;;;;;;27.55;8.40;;;;;;;16.54;100.00;101772.22;5065998;28;20036;-76
2022/06/11 00:58:23;;;;;;;16.45;7.35;;;;;;;16.47;100.00;101779.31;5081099;28;20336;-76
2022/06/11 01:00:53;;;;;;;22.35;7.93;;;;;;;16.44;100.00;101777.69;5079626;28;20118;-75
2022/06/11 01:03:35;;;;;;;23.40;8.25;;;;;;;16.46;100.00;101772.91;5081379;28;20030;-75
2022/06/11 01:06:37;;;;;;;20.33;7.93;;;;;;;16.38;100.00;101769.97;5073973;28;20032;-76
2022/06/11 01:09:40;;;;;;;21.98;7.72;;;;;;;16.32;100.00;101771.38;5087008;28;20119;-76
2022/06/11 01:12:29;;;;;;;21.80;8.27;;;;;;;16.35;100.00;101773.88;5059448;28;20072;-76
2022/06/11 01:15:15;;;;;;;25.85;7.88;;;;;;;16.26;100.00;101769.16;5077208;28;20127;-76
2022/06/11 01:18:08;;;;;;;17.42;8.85;;;;;;;16.22;100.00;101767.69;5067114;28;20017;-76
2022/06/11 01:20:45;;;;;;;26.05;8.10;;;;;;;16.21;100.00;101765.06;5085802;28;20034;-76
2022/06/11 01:23:29;;;;;;;23.45;8.43;;;;;;;16.17;100.00;101759.81;5074225;28;20051;-76
2022/06/11 01:26:13;;;;;;;21.65;8.60;;;;;;;16.16;100.00;101760.78;5085272;28;21873;-76
2022/06/11 01:29:00;;;;;;;20.42;7.45;;;;;;;16.12;100.00;101762.09;5059062;28;20400;-76
2022/06/11 01:31:34;;;;;;;24.17;8.63;;;;;;;16.07;100.00;101763.50;5083132;28;20030;-76
2022/06/11 01:34:18;;;;;;;23.08;7.93;;;;;;;16.01;100.00;101759.41;5081411;28;20475;-76
2022/06/11 01:36:47;;;;;;;22.52;8.90;;;;;;;16.04;100.00;101761.91;5079264;28;20073;-76
2022/06/11 01:39:17;;;;;;;21.25;8.35;;;;;;;15.96;100.00;101754.28;5071928;28;20115;-76
2022/06/11 01:42:00;;;;;;;25.60;8.50;;;;;;;15.91;100.00;101742.75;5073764;28;20036;-76
2022/06/11 01:44:33;;;;;;;17.70;8.70;;;;;;;15.95;100.00;101755.31;5072289;28;20104;-76
2022/06/11 01:46:58;;;;;;;24.35;8.82;;;;;;;15.95;100.00;101747.03;5060929;28;20032;-76
2022/06/11 01:49:24;;;;;;;22.73;9.57;;;;;;;16.01;100.00;101751.13;5086002;28;20123;-76
2022/06/11 01:52:02;;;;;;;23.27;9.43;;;;;;;16.05;100.00;101754.47;5081152;28;20028;-77
2022/06/11 01:55:07;;;;;;;20.23;8.43;;;;;;;16.12;100.00;101752.94;5073383;28;20428;-77
2022/06/11 01:57:46;;;;;;;13.82;7.72;;;;;;;16.13;100.00;101754.66;5081954;28;20040;-76
2022/06/11 02:00:17;;;;;;;19.15;7.63;;;;;;;16.12;100.00;101750.19;5065299;28;20032;-76
2022/06/11 02:03:14;;;;;;;19.02;7.93;;;;;;;16.13;100.00;101758.34;5077515;28;20421;-76
2022/06/11 02:05:55;;;;;;;19.55;7.60;;;;;;;16.11;100.00;101756.69;5072057;28;20159;-76
2022/06/11 02:08:47;;;;;;;19.45;8.82;;;;;;;16.01;100.00;101753.00;5072744;28;20033;-76
2022/06/11 02:11:45;;;;;;;17.88;8.20;;;;;;;16.02;100.00;101757.50;5068590;28;20040;-76
2022/06/11 02:14:36;;;;;;;20.02;8.50;;;;;;;15.99;100.00;101751.25;5071713;28;20040;-76
2022/06/11 02:17:18;;;;;;;26.70;9.38;;;;;;;15.91;100.00;101755.69;5086387;28;20111;-76
2022/06/11 02:19:52;;;;;;;31.73;9.57;;;;;;;15.85;100.00;101751.56;5079252;28;20028;-76
2022/06/11 02:22:41;;;;;;;20.77;9.30;;;;;;;15.83;100.00;101755.50;5091526;28;20031;-76
2022/06/11 02:25:26;;;;;;;19.33;8.88;;;;;;;15.75;100.00;101745.06;5082195;28;20036;-76
2022/06/11 02:27:56;;;;;;;22.60;8.95;;;;;;;15.72;100.00;101742.56;5075153;28;20115;-76
2022/06/11 02:30:26;;;;;;;28.42;9.73;;;;;;;15.69;100.00;101740.06;5062727;28;20472;-76
2022/06/11 02:32:53;;;;;;;18.00;9.10;;;;;;;15.62;100.00;101748.03;5056377;28;20032;-76
2022/06/11 02:35:27;;;;;;;26.02;9.10;;;;;;;15.60;100.00;101750.91;5081735;28;20040;-76
2022/06/11 02:37:52;;;;;;;23.13;9.15;;;;;;;15.62;100.00;101750.78;5081971;28;20037;-76
2022/06/11 02:40:26;;;;;;;27.25;9.82;;;;;;;15.56;100.00;101754.97;5050964;28;20050;-76
2022/06/11 02:42:52;;;;;;;21.30;9.13;;;;;;;15.60;100.00;101758.31;5075159;28;20038;-76
2022/06/11 02:45:18;;;;;;;19.08;9.07;;;;;;;15.54;100.00;101756.09;5074070;28;20486;-76
2022/06/11 02:47:47;;;;;;;19.48;9.68;;;;;;;15.53;100.00;101755.22;5077127;28;20036;-76
2022/06/11 02:50:20;;;;;;;23.83;8.75;;;;;;;15.56;100.00;101759.59;5069483;28;20081;-76
2022/06/11 02:52:46;;;;;;;22.45;7.95;;;;;;;15.54;100.00;101764.38;5095056;28;20039;-76
2022/06/11 02:55:12;;;;;;;26.38;8.32;;;;;;;15.48;100.00;101753.84;5068857;28;20463;-76
2022/06/11 02:57:38;;;;;;;19.65;8.02;;;;;;;15.54;100.00;101765.22;5095048;28;20099;-76
2022/06/11 03:00:06;;;;;;;17.65;7.57;;;;;;;15.51;100.00;101757.25;5086200;28;20032;-76
2022/06/11 03:02:32;;;;;;;16.00;7.65;;;;;;;15.59;100.00;101765.75;5075014;28;20028;-76
2022/06/11 03:04:58;;;;;;;18.73;7.88;;;;;;;15.60;100.00;101763.84;5064571;28;20037;-76
2022/06/11 03:07:24;;;;;;;16.42;7.40;;;;;;;15.58;100.00;101772.25;5075498;28;20496;-76
2022/06/11 03:09:50;;;;;;;23.13;7.50;;;;;;;15.59;100.00;101768.50;5083055;28;20150;-76
2022/06/11 03:12:15;;;;;;;15.77;6.90;;;;;;;15.59;100.00;101774.03;5074688;28;20127;-76
2022/06/11 03:14:41;;;;;;;13.57;6.75;;;;;;;15.55;100.00;101769.75;5081767;28;20036;-76
2022/06/11 03:17:09;;;;;;;17.05;6.95;;;;;;;15.54;100.00;101772.66;5081817;28;20036;-76
2022/06/11 03:19:34;;;;;;;13.40;7.05;;;;;;;15.51;100.00;101773.81;5076126;28;20391;-76
2022/06/11 03:22:00;;;;;;;14.50;6.93;;;;;;;15.51;100.00;101779.31;5079212;28;20045;-76
2022/06/11 03:24:27;;;;;;;17.98;7.18;;;;;;;15.56;100.00;101787.19;5077417;28;20027;-76
2022/06/11 03:26:54;;;;;;;19.38;7.72;;;;;;;15.53;100.00;101782.81;5076220;28;20123;-76
2022/06/11 03:29:21;;;;;;;16.77;7.13;;;;;;;15.55;100.00;101788.22;5092096;28;20082;-76
2022/06/11 03:31:47;;;;;;;19.02;7.28;;;;;;;15.56;100.00;101788.09;5082316;28;20086;-76
2022/06/11 03:34:14;;;;;;;26.13;7.50;;;;;;;15.51;100.00;101790.38;5047702;28;20153;-76
2022/06/11 03:36:40;;;;;;;20.77;7.20;;;;;;;15.58;100.00;101794.34;5073747;28;20025;-76
2022/06/11 03:39:06;;;;;;;14.90;7.30;;;;;;;15.61;100.00;101798.75;5073536;28;20487;-76
2022/06/11 03:41:32;;;;;;;22.67;8.80;;;;;;;15.68;100.00;101799.09;5079219;28;20373;-75
2022/06/11 03:43:58;;;;;;;19.33;7.75;;;;;;;15.73;100.00;101802.31;5090113;28;20043;-76
2022/06/11 03:46:24;;;;;;;16.75;7.70;;;;;;;15.77;100.00;101801.97;5091958;28;20044;-75
2022/06/11 03:48:51;;;;;;;21.00;7.53;;;;;;;15.79;100.00;101804.59;5087875;28;20051;-76
2022/06/11 03:51:18;;;;;;;14.27;6.68;;;;;;;15.82;100.00;101806.19;5083866;28;20453;-75
2022/06/11 03:53:44;;;;;;;17.73;7.40;;;;;;;15.86;100.00;101803.06;5082959;28;20033;-76
2022/06/11 03:56:11;;;;;;;17.25;8.27;;;;;;;15.88;100.00;101805.69;5092611;28;20120;-76
2022/06/11 03:58:37;;;;;;;15.32;6.95;;;;;;;15.87;100.00;101806.69;5055387;28;20033;-76
2022/06/11 04:01:16;;;;;;;16.35;6.88;;;;;;;15.99;100.00;101811.16;5074520;28;20123;-76
2022/06/11 04:03:58;;;;;;;14.70;6.85;;;;;;;15.93;100.00;101817.19;5073851;28;20122;-76
2022/06/11 04:06:28;;;;;;;13.38;6.75;;;;;;;15.97;100.00;101815.91;5081723;28;20031;-76
2022/06/11 04:08:55;;;;;;;17.05;6.78;;;;;;;16.01;100.00;101825.69;5093118;28;20035;-76
2022/06/11 04:11:21;;;;;;;19.40;7.07;;;;;;;16.06;100.00;101811.50;5086575;28;20036;-76
2022/06/11 04:13:48;;;;;;;15.30;6.82;;;;;;;16.05;100.00;101826.31;5081409;28;21622;-75
2022/06/11 04:16:42;;;;;;;11.57;6.43;;;;;;;16.06;100.00;101830.84;5080825;28;20104;-76
2022/06/11 04:19:13;;;;;;;14.77;7.00;;;;;;;16.15;100.00;101833.66;5072208;28;20082;-75
2022/06/11 04:21:38;;;;;;;13.07;6.78;;;;;;;16.17;100.00;101825.25;5089493;28;20486;-75
2022/06/11 04:24:07;;;;;;;14.85;6.40;;;;;;;16.11;100.00;101837.69;5088690;28;20060;-75
2022/06/11 04:26:36;;;;;;;17.17;6.82;;;;;;;16.24;100.00;101826.44;5072973;28;20043;-76
2022/06/11 04:29:04;;;;;;;9.30;6.13;;;;;;;16.22;100.00;101844.19;5081857;28;20032;-76
2022/06/11 04:31:31;;;;;;;13.60;6.55;;;;;;;16.15;100.00;101836.44;5073565;28;20085;-76
2022/06/11 04:33:57;;;;;;;11.88;6.22;;;;;;;16.11;100.00;101845.13;5086961;28;20605;-75
2022/06/11 04:36:26;;;;;;;15.68;6.55;;;;;;;16.17;100.00;101847.34;5069720;28;20119;-76
2022/06/11 04:38:52;;;;;;;10.98;6.40;;;;;;;16.23;100.00;101846.78;5073119;28;20034;-75
2022/06/11 04:41:19;;;;;;;18.65;6.47;;;;;;;16.25;100.00;101847.56;5067240;28;20040;-76
2022/06/11 04:43:44;;;;;;;14.65;5.93;;;;;;;16.26;100.00;101837.38;5073398;28;20478;-77
2022/06/11 04:46:11;;;;;;;14.07;6.30;;;;;;;16.31;100.00;101857.19;5078561;28;20064;-76
2022/06/11 04:48:37;;;;;;;17.73;6.93;;;;;;;16.36;100.00;101863.19;5087938;28;20036;-75
2022/06/11 04:51:03;;;;;;;14.15;6.55;;;;;;;16.41;100.00;101848.97;5079077;28;20024;-75
2022/06/11 04:53:30;;;;;;;18.63;7.50;;;;;;;16.36;100.00;101846.59;5068424;28;20039;-75
2022/06/11 04:55:55;;;;;;;12.30;5.97;;;;;;;16.36;100.00;101852.13;5077121;28;20036;-76
2022/06/11 04:58:21;;;;;;;11.63;5.85;;;;;;;16.39;100.00;101851.88;5080974;28;20490;-75
2022/06/11 05:00:47;;;;;;;14.20;5.55;;;;;;;16.39;100.00;101851.88;5079893;28;20051;-75
2022/06/11 05:03:12;;;;;;;12.85;5.47;;;;;;;16.36;100.00;101857.66;5086019;28;20039;-76
2022/06/11 05:05:38;;;;;;;11.63;5.78;;;;;;;16.39;100.00;101851.00;5072134;28;20481;-76
2022/06/11 05:08:04;;;;;;;19.10;6.45;;;;;;;16.41;100.00;101852.59;5073972;28;20501;-76
2022/06/11 05:10:34;;;;;;;14.35;5.57;;;;;;;16.50;100.00;101862.84;5083259;28;22230;-76
2022/06/11 05:13:01;;;;;;;19.63;5.57;;;;;;;16.51;100.00;101860.94;5088230;28;20040;-76
2022/06/11 05:15:26;;;;;;;8.80;5.10;;;;;;;16.51;100.00;101866.47;5080662;28;20044;-75
2022/06/11 05:17:52;;;;;;;10.95;5.40;;;;;;;16.51;100.00;101856.31;5073696;28;20023;-77
2022/06/11 05:20:18;;;;;;;13.43;6.60;;;;;;;16.53;100.00;101858.97;5071215;28;20037;-77
2022/06/11 05:22:45;;;;;;;12.98;6.05;;;;;;;16.58;100.00;101859.41;5091017;28;20024;-78
2022/06/11 05:25:12;;;;;;;15.35;5.78;;;;;;;16.67;100.00;101858.59;5057390;28;20444;-77
2022/06/11 05:27:40;;;;;;;12.75;5.28;;;;;;;16.72;100.00;101861.84;5079586;28;20028;-76
2022/06/11 05:30:27;;;;;;;17.73;5.75;;;;;;;16.72;100.00;101866.47;5079108;28;20415;-77
2022/06/11 05:32:53;;;;;;;17.48;6.00;;;;;;;16.77;100.00;101863.31;5058409;28;20037;-76
2022/06/11 05:35:21;;;;;;;9.63;5.45;;;;;;;16.75;100.00;101868.97;5086756;28;20553;-77
2022/06/11 05:37:52;;;;;;;16.27;6.05;;;;;;;16.78;100.00;101856.75;5089134;28;20436;-78
2022/06/11 05:40:23;;;;;;;8.73;5.40;;;;;;;16.70;100.00;101860.22;5083515;28;20034;-77
2022/06/11 05:42:50;;;;;;;17.35;6.03;;;;;;;16.71;100.00;101867.50;5083900;28;20453;-77
2022/06/11 05:45:18;;;;;;;12.02;5.60;;;;;;;16.71;100.00;101875.81;5071106;28;20043;-77
2022/06/11 05:47:45;;;;;;;18.33;5.82;;;;;;;16.68;100.00;101863.09;5074182;28;20040;-77
2022/06/11 05:50:18;;;;;;;16.33;5.53;;;;;;;16.70;100.00;101872.13;5074647;28;20037;-77
2022/06/11 05:52:45;;;;;;;12.02;6.30;;;;;;;16.70;100.00;101869.38;5073851;28;20123;-77
2022/06/11 05:55:19;;;;;;;12.80;5.32;;;;;;;16.81;100.00;101876.72;5061749;28;20159;-77
2022/06/11 05:57:47;;;;;;;18.10;5.40;;;;;;;16.84;100.00;101870.03;5074926;28;20081;-77
2022/06/11 06:00:16;;;;;;;15.55;4.90;;;;;;;16.89;100.00;101868.66;5078349;28;20040;-77
2022/06/11 06:02:43;;;;;;;7.10;4.78;;;;;;;17.02;100.00;101879.50;5086494;28;20032;-77
2022/06/11 06:05:11;;;;;;;13.93;4.50;;;;;;;17.08;100.00;101869.75;5071733;28;20028;-76
2022/06/11 06:07:36;;;;;;;16.10;4.30;;;;;;;17.26;100.00;101869.97;5074469;28;20040;-76
2022/06/11 06:10:02;;;;;;;9.20;3.70;;;;;;;17.25;100.00;101879.28;5087235;28;20545;-76
2022/06/11 06:12:32;;;;;;;11.07;3.35;;;;;;;17.21;100.00;101859.31;5083434;28;20150;-76
2022/06/11 06:15:08;;;;;;;12.68;3.88;;;;;;;17.32;100.00;101874.06;5084185;28;20060;-77
2022/06/11 06:17:34;;;;;;;18.55;3.17;;;;;;;17.55;100.00;101878.34;5090556;28;20103;-79
2022/06/11 06:20:00;;;;;;;16.13;2.90;;;;;;;17.53;100.00;101888.69;5096397;28;20035;-78
2022/06/11 06:22:26;;;;;;;15.07;2.80;;;;;;;17.36;100.00;101883.84;5096176;28;20045;-81
2022/06/11 06:24:51;;;;;;;17.70;3.05;;;;;;;17.47;100.00;101886.50;5078077;28;20028;-79
2022/06/11 06:27:16;;;;;;;21.02;3.20;;;;;;;17.80;100.00;101887.16;5077722;28;20522;-78
2022/06/11 06:29:42;;;;;;;14.98;2.58;;;;;;;19.03;100.00;101888.41;5062503;28;20036;-78
2022/06/11 06:32:08;;;;;;;18.23;2.53;;;;;;;19.00;100.00;101884.00;5092009;28;20102;-80
2022/06/11 06:34:33;;;;;;;11.30;2.47;;;;;;;19.95;100.00;101883.81;5062372;28;20396;-78
2022/06/11 06:36:59;;;;;;;21.08;2.70;;;;;;;19.22;100.00;101882.78;5070184;28;20029;-75
2022/06/11 06:39:24;;;;;;;19.20;3.53;;;;;;;19.52;100.00;101879.84;5061126;28;20123;-75
2022/06/11 06:41:50;;;;;;;16.63;2.72;;;;;;;20.14;100.00;101871.69;5058761;28;20035;-78
2022/06/11 06:44:16;;;;;;;12.90;2.42;;;;;;;20.53;100.00;101882.44;5058939;28;20154;-77
2022/06/11 06:46:42;;;;;;;20.45;3.38;;;;;;;19.64;100.00;101882.25;5080144;28;20032;-77
2022/06/11 06:49:08;;;;;;;20.67;3.15;;;;;;;19.40;100.00;101887.53;5072996;28;20381;-77
2022/06/11 06:51:34;;;;;;;19.27;2.65;;;;;;;19.82;100.00;101887.88;5062958;28;20032;-76
2022/06/11 06:54:00;;;;;;;19.10;3.55;;;;;;;20.63;100.00;101893.44;5090640;28;20047;-77
2022/06/11 06:56:31;;;;;;;62.90;4.22;;;;;;;19.74;100.00;101884.97;5075768;28;20036;-76
2022/06/11 06:58:57;;;;;;;40.88;3.67;;;;;;;19.42;100.00;101891.00;5044075;28;20482;-77
2022/06/11 07:01:26;;;;;;;18.73;3.67;;;;;;;19.27;100.00;101891.50;5042828;28;20032;-77
2022/06/11 07:03:52;;;;;;;19.40;3.22;;;;;;;19.10;100.00;101897.84;5071587;28;20028;-76
2022/06/11 07:06:17;;;;;;;22.55;3.42;;;;;;;19.06;100.00;101907.53;5062334;28;20036;-77
2022/06/11 07:08:44;;;;;;;26.73;3.25;;;;;;;18.74;100.00;101903.19;5041938;28;20480;-76
2022/06/11 07:11:09;;;;;;;25.13;3.53;;;;;;;18.35;100.00;101906.03;5093358;28;20031;-76
2022/06/11 07:13:35;;;;;;;22.55;3.42;;;;;;;18.08;100.00;101901.22;5085438;28;20572;-76
2022/06/11 07:16:02;;;;;;;21.58;3.20;;;;;;;17.85;100.00;101901.44;5085580;28;20450;-78
2022/06/11 07:18:34;;;;;;;26.00;3.60;;;;;;;17.88;100.00;101903.09;5065734;28;20123;-78
2022/06/11 07:21:03;;;;;;;29.58;3.30;;;;;;;17.99;100.00;101906.59;5079254;28;20033;-77
2022/06/11 07:23:35;;;;;;;25.80;3.58;;;;;;;18.44;100.00;101901.50;5081488;28;20463;-78
2022/06/11 07:26:04;;;;;;;21.88;3.00;;;;;;;18.86;100.00;101909.50;5079462;28;20032;-77
2022/06/11 07:28:36;;;;;;;31.60;3.78;;;;;;;19.16;100.00;101901.94;5083620;28;20028;-77
2022/06/11 07:31:01;;;;;;;29.17;4.00;;;;;;;19.75;100.00;101900.63;5081014;28;20436;-77
2022/06/11 07:33:27;;;;;;;28.10;3.80;;;;;;;20.34;100.00;101902.97;5063882;28;20040;-78
2022/06/11 07:35:54;;;;;;;27.67;3.00;;;;;;;21.44;100.00;101903.38;5079606;28;20056;-78
2022/06/11 07:38:22;;;;;;;25.95;3.83;;;;;;;21.10;100.00;101907.94;5080142;28;20045;-79
2022/06/11 07:40:48;;;;;;;18.20;2.97;;;;;;;21.25;100.00;101901.72;5064067;28;20029;-78
2022/06/11 07:43:13;;;;;;;26.27;3.70;;;;;;;20.30;100.00;101907.09;5063758;28;20105;-77
2022/06/11 07:45:42;;;;;;;29.55;4.22;;;;;;;19.67;100.00;101913.53;5082660;28;20037;-77
2022/06/11 07:48:09;;;;;;;28.88;4.20;;;;;;;19.34;100.00;101924.22;5081174;28;20036;-78
2022/06/11 07:50:41;;;;;;;28.42;3.70;;;;;;;19.28;100.00;101929.38;5081559;28;20120;-77
2022/06/11 07:53:08;;;;;;;35.58;3.78;;;;;;;18.85;100.00;101925.25;5082397;28;20593;-78
2022/06/11 07:55:34;;;;;;;20.70;3.63;;;;;;;18.91;100.00;101937.69;5080018;28;20070;-77
2022/06/11 07:58:02;;;;;;;38.33;4.47;;;;;;;19.02;100.00;101917.16;5079081;28;20543;-78
2022/06/11 08:00:31;;;;;;;31.73;4.47;;;;;;;19.06;100.00;101929.75;5079646;28;20060;-78
2022/06/11 08:02:57;;;;;;;39.88;3.90;;;;;;;19.64;100.00;101929.50;5080019;28;20032;-78
2022/06/11 08:05:23;;;;;;;28.08;3.78;;;;;;;19.87;100.00;101931.84;5081333;28;20040;-78
2022/06/11 08:07:51;;;;;;;35.55;3.55;;;;;;;19.02;100.00;101943.06;5079548;28;20094;-78
2022/06/11 08:10:18;;;;;;;35.10;4.78;;;;;;;19.08;100.00;101936.00;5090374;28;20060;-77
2022/06/11 08:12:43;;;;;;;35.22;3.95;;;;;;;18.73;100.00;101931.97;5083995;28;20063;-78
2022/06/11 08:15:10;;;;;;;40.35;4.38;;;;;;;18.71;100.00;101942.34;5034012;28;20464;-78
2022/06/11 08:17:36;;;;;;;31.83;4.45;;;;;;;18.70;100.00;101948.91;5077658;28;20024;-77
2022/06/11 08:20:03;;;;;;;29.77;3.65;;;;;;;18.92;100.00;101944.94;5090466;28;20036;-78
2022/06/11 08:22:28;;;;;;;37.72;4.90;;;;;;;19.46;100.00;101943.34;5080158;28;20028;-78
2022/06/11 08:24:54;;;;;;;35.75;4.68;;;;;;;19.45;100.00;101946.25;5080951;28;20119;-77
2022/06/11 08:27:19;;;;;;;42.42;4.35;;;;;;;19.40;100.00;101955.03;5063636;28;20032;-77
2022/06/11 08:29:45;;;;;;;34.58;3.90;;;;;;;19.56;100.00;101939.59;5081456;28;20044;-77
2022/06/11 08:32:11;;;;;;;44.38;4.55;;;;;;;19.52;100.00;101952.94;5078476;28;20549;-78
2022/06/11 08:34:38;;;;;;;51.67;4.82;;;;;;;19.50;100.00;101952.22;5080672;28;20040;-77
2022/06/11 08:37:04;;;;;;;38.38;4.28;;;;;;;20.17;100.00;101947.31;5078827;28;20040;-77
2022/06/11 08:39:30;;;;;;;58.05;4.85;;;;;;;19.90;100.00;101958.47;5046027;28;20028;-78
2022/06/11 08:41:56;;;;;;;47.92;5.70;;;;;;;19.85;100.00;101941.41;5077652;28;20028;-78
2022/06/11 08:44:22;;;;;;;48.85;4.55;;;;;;;20.04;100.00;101957.06;5060787;28;20503;-78
2022/06/11 08:46:50;;;;;;;40.03;4.30;;;;;;;19.70;100.00;101949.34;5077975;28;20033;-77
2022/06/11 08:49:35;;;;;;;35.22;3.78;;;;;;;19.65;100.00;101953.44;5062129;28;20470;-77
2022/06/11 08:52:10;;;;;;;39.03;4.68;;;;;;;19.36;100.00;101955.50;5074758;28;20028;-77
2022/06/11 08:54:40;;;;;;;44.15;4.72;;;;;;;19.97;100.00;101951.25;5086792;28;20067;-78
2022/06/11 08:57:38;;;;;;;49.75;4.30;;;;;;;20.45;100.00;101955.59;5078999;28;20108;-77
2022/06/11 09:00:10;;;;;;;49.78;5.15;;;;;;;20.37;100.00;101959.16;5062129;28;20040;-77
2022/06/11 09:02:45;;;;;;;47.70;5.07;;;;;;;20.29;100.00;101961.84;5093915;28;20032;-77
2022/06/11 09:05:29;;;;;;;46.53;5.15;;;;;;;20.04;100.00;101952.41;5099534;28;20036;-77
2022/06/11 09:08:31;;;;;;;36.92;4.45;;;;;;;20.26;100.00;101952.97;5092598;28;20107;-78
2022/06/11 09:11:10;;;;;;;47.38;4.68;;;;;;;21.10;98.63;101951.59;5088680;28;20043;-77
2022/06/11 09:14:01;;;;;;;47.17;4.53;;;;;;;21.22;97.53;101953.09;5063342;28;20024;-78
2022/06/11 09:16:38;;;;;;;46.08;4.53;;;;;;;21.21;97.45;101953.25;5080020;28;20036;-78
2022/06/11 09:19:19;;;;;;;41.92;4.22;;;;;;;21.59;94.74;101948.25;5079758;28;20033;-77
2022/06/11 09:22:25;;;;;;;58.38;6.72;;;;;;;20.94;99.01;101955.16;5080674;28;20060;-77
2022/06/11 09:24:51;;;;;;;36.42;4.57;;;;;;;20.65;99.24;101959.09;5079754;28;20063;-77
2022/06/11 09:27:29;;;;;;;43.15;4.85;;;;;;;21.72;97.42;101947.78;5084813;28;20036;-77
2022/06/11 09:30:06;;;;;;;35.95;4.55;;;;;;;22.38;92.14;101954.41;5098591;28;20117;-78
2022/06/11 09:32:49;;;;;;;32.83;4.28;;;;;;;22.16;91.13;101948.44;5100331;28;20039;-79
2022/06/11 09:35:39;;;;;;;39.17;4.38;;;;;;;21.45;97.63;101947.81;5099205;28;20044;-78
2022/06/11 09:38:30;;;;;;;41.92;4.63;;;;;;;22.37;92.21;101947.97;5091457;28;20047;-78
2022/06/11 09:41:21;;;;;;;41.35;4.30;;;;;;;23.09;88.12;101952.00;5080459;28;20503;-78
2022/06/11 09:43:46;;;;;;;37.05;5.00;;;;;;;22.52;88.42;101953.75;5076968;28;20384;-77
2022/06/11 09:46:19;;;;;;;30.48;5.07;;;;;;;22.01;91.81;101955.72;5079027;28;20036;-79
2022/06/11 09:48:50;;;;;;;38.50;5.55;;;;;;;22.50;94.25;101952.19;5062547;28;20059;-78
2022/06/11 09:51:28;;;;;;;48.55;5.38;;;;;;;22.82;93.26;101948.50;5077217;28;20101;-78
2022/06/11 09:54:03;;;;;;;33.45;5.55;;;;;;;22.78;90.58;101949.06;5058678;28;20123;-78
2022/06/11 09:56:33;;;;;;;48.25;5.40;;;;;;;23.44;88.87;101945.09;5074213;28;20616;-78
2022/06/11 09:59:32;;;;;;;51.45;5.57;;;;;;;23.59;87.37;101953.59;5099381;28;20036;-80
2022/06/11 10:02:07;;;;;;;40.50;5.65;;;;;;;23.66;84.63;101951.84;5096027;28;20091;-78
2022/06/11 10:04:37;;;;;;;46.10;5.82;;;;;;;24.06;84.83;101951.84;5078438;28;20028;-79
2022/06/11 10:07:26;;;;;;;33.42;5.10;;;;;;;23.57;84.35;101950.13;5062742;28;20055;-78
2022/06/11 10:10:01;;;;;;;45.42;5.57;;;;;;;23.29;88.14;101944.09;5080358;28;20058;-79
2022/06/11 10:12:50;;;;;;;42.08;5.53;;;;;;;23.87;86.31;101947.56;5099326;28;20028;-79
2022/06/11 10:15:29;;;;;;;39.72;4.53;;;;;;;24.70;84.74;101945.13;5098842;28;20134;-78
2022/06/11 10:18:06;;;;;;;38.15;5.97;;;;;;;24.54;84.71;101946.94;5099644;28;20063;-78
2022/06/11 10:20:42;;;;;;;41.97;5.10;;;;;;;24.79;77.57;101948.69;5103546;28;20447;-78
2022/06/11 10:23:40;;;;;;;52.08;6.72;;;;;;;24.63;81.32;101947.78;5099990;28;20028;-78
2022/06/11 10:26:18;;;;;;;42.17;5.85;;;;;;;23.80;82.54;101943.72;5096996;28;20468;-78
2022/06/11 10:28:55;;;;;;;38.58;6.22;;;;;;;23.21;86.19;101939.41;5081452;28;20039;-78
2022/06/11 10:31:40;;;;;;;46.55;6.60;;;;;;;23.78;84.70;101938.31;5079995;28;20024;-79
2022/06/11 10:34:17;;;;;;;49.33;6.65;;;;;;;23.33;85.94;101941.81;5079224;28;20040;-78
2022/06/11 10:37:03;;;;;;;48.47;5.55;;;;;;;23.35;84.10;101951.78;5075646;28;20035;-79
2022/06/11 10:39:36;;;;;;;37.55;5.10;;;;;;;23.94;79.28;101948.59;5076608;28;20119;-80
2022/06/11 10:42:18;;;;;;;41.72;5.80;;;;;;;23.38;81.25;101945.84;5075016;28;20028;-78
2022/06/11 10:44:47;;;;;;;44.08;5.50;;;;;;;23.79;79.98;101950.38;5075620;28;20456;-78
2022/06/11 10:47:15;;;;;;;47.40;5.90;;;;;;;23.80;83.64;101949.31;5089145;28;20085;-78
2022/06/11 10:49:41;;;;;;;42.60;5.80;;;;;;;24.36;75.91;101946.38;5097219;28;20028;-77
2022/06/11 10:52:52;;;;;;;39.47;6.00;;;;;;;24.09;81.71;101948.69;5097914;28;20085;-77
2022/06/11 10:55:35;;;;;;;47.60;6.28;;;;;;;24.06;81.47;101943.44;5071453;28;20055;-77
2022/06/11 10:58:13;;;;;;;45.65;6.22;;;;;;;24.70;79.65;101940.38;5072340;28;20504;-78
2022/06/11 11:01:02;;;;;;;46.95;6.53;;;;;;;24.20;78.35;101930.56;5089371;28;20088;-78
2022/06/11 11:03:51;;;;;;;44.15;5.95;;;;;;;23.95;77.33;101930.72;5084323;28;20040;-78
2022/06/11 11:06:29;;;;;;;36.95;4.78;;;;;;;24.51;79.73;101932.44;5086534;28;20016;-78
2022/06/11 11:09:02;;;;;;;57.78;5.60;;;;;;;24.45;75.25;101934.09;5122190;28;20026;-78
2022/06/11 11:11:32;;;;;;;39.95;5.30;;;;;;;24.63;76.34;101924.50;5085392;28;20056;-78
2022/06/11 11:14:15;;;;;;;44.35;4.88;;;;;;;24.59;75.15;101926.81;5079286;28;20059;-77
2022/06/11 11:16:43;;;;;;;35.35;3.97;;;;;;;24.52;73.51;101926.66;5099015;28;20055;-77
2022/06/11 11:19:16;;;;;;;38.08;4.90;;;;;;;24.55;70.35;101925.44;5100008;28;20383;-78
2022/06/11 11:22:14;;;;;;;34.15;4.00;;;;;;;24.82;71.17;101928.72;5097471;28;20036;-79
2022/06/11 11:24:48;;;;;;;29.83;3.97;;;;;;;24.82;69.22;101925.91;5064924;28;20037;-78
2022/06/11 11:27:18;;;;;;;42.30;4.13;;;;;;;25.09;69.81;101924.41;5080281;28;20047;-78
2022/06/11 11:29:57;;;;;;;35.53;3.67;;;;;;;24.79;73.56;101935.56;5079601;28;20033;-79
2022/06/11 11:32:34;;;;;;;38.30;4.57;;;;;;;24.66;71.67;101933.41;5095982;28;20479;-79
2022/06/11 11:35:24;;;;;;;33.58;4.38;;;;;;;24.84;73.17;101938.69;5098530;28;20363;-78